UAL2259 KSFO-CYVR
Flight info
| Callsign | UAL2259 |
|---|---|
| Flight time | 1h 54m |
| Altitude | 36000 |
| Route | TRUKN2 DEDHD DCT RBL DCT PAE GRIZZ9 |
| Aircraft | B38M/M-SDE1FGHILORVWXY/HB1 |
Departure
| Time | 2026-04-30 17:48 |
|---|---|
| Airport | San Francisco International Airport (KSFO) |
Arrival
| Time | 2026-04-30 19:42 |
|---|---|
| Airport | Vancouver International Airport (CYVR) |
| Time | Latitude | Longitude | Altitude | Speed | Heading |
|---|---|---|---|---|---|
| 2026-04-30 17:39 | 37.61774 | -122.38251 | 22 ft | 0 kts | 152° |
| 2026-04-30 17:41 | 37.61808 | -122.38328 | 22 ft | 0 kts | 63° |
| 2026-04-30 17:42 | 37.61882 | -122.38285 | 22 ft | 11 kts | 29° |
| 2026-04-30 17:43 | 37.61928 | -122.38127 | 22 ft | 15 kts | 118° |
| 2026-04-30 17:44 | 37.61747 | -122.37573 | 22 ft | 30 kts | 114° |
| 2026-04-30 17:44 | 37.61473 | -122.36912 | 22 ft | 25 kts | 123° |
| 2026-04-30 17:46 | 37.61052 | -122.35980 | 22 ft | 17 kts | 82° |
| 2026-04-30 17:47 | 37.61230 | -122.35977 | 22 ft | 10 kts | 298° |
| 2026-04-30 17:48 | 37.62695 | -122.39467 | 868 ft | 161 kts | 297° |
| 2026-04-30 17:48 | 37.64965 | -122.42932 | 2696 ft | 200 kts | 341° |
| 2026-04-30 17:49 | 37.69248 | -122.37898 | 5281 ft | 275 kts | 73° |
| 2026-04-30 17:50 | 37.70889 | -122.27529 | 8114 ft | 324 kts | 79° |
| 2026-04-30 17:51 | 37.75008 | -122.20935 | 9939 ft | 341 kts | 24° |
| 2026-04-30 17:52 | 37.82026 | -122.18694 | 11842 ft | 350 kts | 9° |
| 2026-04-30 17:53 | 37.93881 | -122.16538 | 15461 ft | 336 kts | 6° |
| 2026-04-30 17:54 | 38.03442 | -122.15090 | 17539 ft | 360 kts | 5° |
| 2026-04-30 17:55 | 38.13722 | -122.13715 | 19556 ft | 387 kts | 4° |
| 2026-04-30 17:56 | 38.24796 | -122.12254 | 21569 ft | 409 kts | 4° |
| 2026-04-30 17:57 | 38.33362 | -122.11806 | 23082 ft | 415 kts | 357° |
| 2026-04-30 17:58 | 38.42029 | -122.12264 | 24586 ft | 416 kts | 355° |
| 2026-04-30 17:59 | 38.53577 | -122.13183 | 26590 ft | 413 kts | 354° |
| 2026-04-30 18:00 | 38.64931 | -122.14035 | 28584 ft | 405 kts | 354° |
| 2026-04-30 18:00 | 38.73277 | -122.14634 | 30079 ft | 396 kts | 354° |
| 2026-04-30 18:01 | 38.78717 | -122.15051 | 31072 ft | 389 kts | 353° |
| 2026-04-30 18:02 | 38.86910 | -122.15641 | 32573 ft | 398 kts | 353° |
| 2026-04-30 18:02 | 38.94424 | -122.16163 | 33383 ft | 416 kts | 353° |
| 2026-04-30 18:03 | 39.03313 | -122.16820 | 33773 ft | 435 kts | 353° |
| 2026-04-30 18:04 | 39.12402 | -122.17531 | 34150 ft | 436 kts | 353° |
| 2026-04-30 18:05 | 39.24451 | -122.18447 | 34648 ft | 433 kts | 353° |
| 2026-04-30 18:06 | 39.36473 | -122.19276 | 35147 ft | 431 kts | 353° |
| 2026-04-30 18:07 | 39.48429 | -122.20025 | 35646 ft | 430 kts | 353° |
| 2026-04-30 18:08 | 39.57386 | -122.20540 | 35994 ft | 430 kts | 353° |
| 2026-04-30 18:10 | 39.81245 | -122.22032 | 36028 ft | 429 kts | 352° |
| 2026-04-30 18:11 | 40.02227 | -122.23228 | 36023 ft | 432 kts | 353° |
| 2026-04-30 18:13 | 40.17282 | -122.23451 | 36019 ft | 434 kts | 355° |
| 2026-04-30 18:14 | 40.32369 | -122.23398 | 36017 ft | 434 kts | 355° |
| 2026-04-30 18:15 | 40.50505 | -122.23309 | 36000 ft | 433 kts | 355° |
| 2026-04-30 18:16 | 40.62526 | -122.23242 | 36004 ft | 433 kts | 355° |
| 2026-04-30 18:17 | 40.68574 | -122.23204 | 36008 ft | 433 kts | 355° |
| 2026-04-30 18:18 | 40.77600 | -122.23157 | 36024 ft | 433 kts | 355° |
| 2026-04-30 18:18 | 40.83614 | -122.23132 | 36039 ft | 433 kts | 355° |
| 2026-04-30 18:19 | 40.89657 | -122.23107 | 36056 ft | 433 kts | 355° |
| 2026-04-30 18:19 | 40.95654 | -122.23081 | 36075 ft | 433 kts | 355° |
| 2026-04-30 18:20 | 41.01686 | -122.23051 | 36094 ft | 433 kts | 355° |
| 2026-04-30 18:20 | 41.07703 | -122.23026 | 36110 ft | 433 kts | 355° |
| 2026-04-30 18:21 | 41.13702 | -122.23007 | 36123 ft | 433 kts | 355° |
| 2026-04-30 18:21 | 41.19745 | -122.22987 | 36131 ft | 433 kts | 355° |
| 2026-04-30 18:22 | 41.25756 | -122.22971 | 36136 ft | 433 kts | 355° |
| 2026-04-30 18:22 | 41.34772 | -122.22956 | 36139 ft | 433 kts | 355° |
| 2026-04-30 18:23 | 41.40797 | -122.22948 | 36140 ft | 433 kts | 355° |
| 2026-04-30 18:23 | 41.46847 | -122.22944 | 36142 ft | 433 kts | 355° |
| 2026-04-30 18:24 | 41.55862 | -122.22938 | 36149 ft | 434 kts | 355° |
| 2026-04-30 18:25 | 41.61927 | -122.22938 | 36154 ft | 434 kts | 355° |
| 2026-04-30 18:25 | 41.70975 | -122.23056 | 36158 ft | 434 kts | 354° |
| 2026-04-30 18:26 | 41.80011 | -122.23258 | 36160 ft | 434 kts | 354° |
| 2026-04-30 18:27 | 41.89093 | -122.23473 | 36162 ft | 434 kts | 354° |
| 2026-04-30 18:28 | 41.98145 | -122.23697 | 36163 ft | 435 kts | 354° |
| 2026-04-30 18:28 | 42.07225 | -122.23919 | 36165 ft | 435 kts | 354° |
| 2026-04-30 18:29 | 42.19318 | -122.24208 | 36166 ft | 435 kts | 354° |
| 2026-04-30 18:30 | 42.31413 | -122.24493 | 36164 ft | 435 kts | 354° |
| 2026-04-30 18:31 | 42.40487 | -122.24703 | 36162 ft | 434 kts | 355° |
| 2026-04-30 18:32 | 42.49552 | -122.24928 | 36161 ft | 434 kts | 355° |
| 2026-04-30 18:33 | 42.58628 | -122.25068 | 36161 ft | 434 kts | 355° |
| 2026-04-30 18:33 | 42.67674 | -122.25107 | 36162 ft | 434 kts | 356° |
| 2026-04-30 18:34 | 42.76724 | -122.25141 | 36163 ft | 434 kts | 356° |
| 2026-04-30 18:35 | 42.82781 | -122.25170 | 36165 ft | 434 kts | 356° |
| 2026-04-30 18:35 | 42.88823 | -122.25205 | 36167 ft | 434 kts | 356° |
| 2026-04-30 18:36 | 42.97828 | -122.25273 | 36171 ft | 433 kts | 356° |
| 2026-04-30 18:37 | 43.06883 | -122.25358 | 36175 ft | 434 kts | 356° |
| 2026-04-30 18:37 | 43.12916 | -122.25424 | 36177 ft | 434 kts | 356° |
| 2026-04-30 18:38 | 43.18954 | -122.25499 | 36181 ft | 434 kts | 356° |
| 2026-04-30 18:38 | 43.24991 | -122.25582 | 36186 ft | 434 kts | 356° |
| 2026-04-30 18:39 | 43.31034 | -122.25672 | 36195 ft | 434 kts | 356° |
| 2026-04-30 18:39 | 43.37085 | -122.25773 | 36199 ft | 434 kts | 356° |
| 2026-04-30 18:40 | 43.43134 | -122.25819 | 36201 ft | 435 kts | 356° |
| 2026-04-30 18:40 | 43.49191 | -122.25808 | 36203 ft | 435 kts | 357° |
| 2026-04-30 18:41 | 43.55251 | -122.25790 | 36205 ft | 436 kts | 357° |
| 2026-04-30 18:41 | 43.61315 | -122.25772 | 36207 ft | 436 kts | 357° |
| 2026-04-30 18:42 | 43.67348 | -122.25760 | 36209 ft | 436 kts | 357° |
| 2026-04-30 18:42 | 43.76460 | -122.25746 | 36211 ft | 437 kts | 357° |
| 2026-04-30 18:45 | 44.09913 | -122.25724 | 36208 ft | 437 kts | 357° |
| 2026-04-30 18:46 | 44.16002 | -122.25725 | 36209 ft | 437 kts | 357° |
| 2026-04-30 18:46 | 44.22100 | -122.25725 | 36205 ft | 437 kts | 357° |
| 2026-04-30 18:47 | 44.28188 | -122.25723 | 36201 ft | 437 kts | 357° |
| 2026-04-30 18:47 | 44.34238 | -122.25720 | 36196 ft | 437 kts | 357° |
| 2026-04-30 18:48 | 44.40322 | -122.25715 | 36193 ft | 437 kts | 357° |
| 2026-04-30 18:48 | 44.46414 | -122.25707 | 36190 ft | 437 kts | 357° |
| 2026-04-30 18:49 | 44.52488 | -122.25698 | 36189 ft | 437 kts | 357° |
| 2026-04-30 18:49 | 44.58582 | -122.25688 | 36187 ft | 437 kts | 357° |
| 2026-04-30 18:50 | 44.64663 | -122.25677 | 36184 ft | 437 kts | 357° |
| 2026-04-30 18:50 | 44.69713 | -122.25668 | 36189 ft | 436 kts | 357° |
| 2026-04-30 18:51 | 44.75795 | -122.25656 | 36188 ft | 436 kts | 357° |
| 2026-04-30 18:51 | 44.81869 | -122.25653 | 36186 ft | 436 kts | 357° |
| 2026-04-30 18:52 | 44.87937 | -122.25654 | 36181 ft | 436 kts | 357° |
| 2026-04-30 18:52 | 44.94019 | -122.25657 | 36170 ft | 436 kts | 357° |
| 2026-04-30 18:53 | 45.00039 | -122.25660 | 36167 ft | 435 kts | 357° |
| 2026-04-30 18:53 | 45.06098 | -122.25664 | 36164 ft | 435 kts | 357° |
| 2026-04-30 18:54 | 45.12150 | -122.25724 | 36163 ft | 435 kts | 357° |
| 2026-04-30 18:54 | 45.18196 | -122.25855 | 36162 ft | 434 kts | 356° |
| 2026-04-30 18:55 | 45.24237 | -122.26009 | 36160 ft | 434 kts | 356° |
| 2026-04-30 18:55 | 45.33295 | -122.26267 | 36158 ft | 434 kts | 356° |
| 2026-04-30 18:56 | 45.42341 | -122.26513 | 36155 ft | 433 kts | 357° |
| 2026-04-30 18:57 | 45.51389 | -122.26607 | 36152 ft | 433 kts | 358° |
| 2026-04-30 18:57 | 45.57414 | -122.26643 | 36151 ft | 433 kts | 358° |
| 2026-04-30 18:58 | 45.66458 | -122.26690 | 36152 ft | 432 kts | 358° |
| 2026-04-30 18:59 | 45.75473 | -122.26742 | 36153 ft | 432 kts | 358° |
| 2026-04-30 19:00 | 45.87461 | -122.26817 | 36159 ft | 432 kts | 358° |
| 2026-04-30 19:01 | 45.99480 | -122.26881 | 36163 ft | 431 kts | 358° |
| 2026-04-30 19:02 | 46.08480 | -122.26930 | 36164 ft | 432 kts | 358° |
| 2026-04-30 19:03 | 46.20472 | -122.26995 | 36174 ft | 432 kts | 358° |
| 2026-04-30 19:04 | 46.32506 | -122.27040 | 36176 ft | 432 kts | 358° |
| 2026-04-30 19:05 | 46.44534 | -122.27060 | 36174 ft | 433 kts | 358° |
| 2026-04-30 19:06 | 46.56593 | -122.27073 | 36177 ft | 433 kts | 358° |
| 2026-04-30 19:06 | 46.65640 | -122.27070 | 36180 ft | 434 kts | 358° |
| 2026-04-30 19:07 | 46.74726 | -122.27068 | 36184 ft | 435 kts | 358° |
| 2026-04-30 19:08 | 46.86812 | -122.27047 | 36186 ft | 436 kts | 358° |
| 2026-04-30 19:09 | 46.95902 | -122.27014 | 36187 ft | 436 kts | 358° |
| 2026-04-30 19:09 | 47.01982 | -122.26991 | 36189 ft | 437 kts | 358° |
| 2026-04-30 19:10 | 47.14175 | -122.26976 | 36189 ft | 437 kts | 357° |
| 2026-04-30 19:11 | 47.23328 | -122.27005 | 35281 ft | 440 kts | 358° |
| 2026-04-30 19:11 | 47.26227 | -122.27002 | 34806 ft | 434 kts | 358° |
| 2026-04-30 19:12 | 47.29358 | -122.27002 | 34282 ft | 427 kts | 358° |
| 2026-04-30 19:12 | 47.32323 | -122.27007 | 33777 ft | 420 kts | 358° |
| 2026-04-30 19:12 | 47.35234 | -122.27016 | 33274 ft | 415 kts | 358° |
| 2026-04-30 19:13 | 47.40959 | -122.27032 | 32269 ft | 406 kts | 358° |
| 2026-04-30 19:13 | 47.46540 | -122.27032 | 31271 ft | 399 kts | 358° |
| 2026-04-30 19:13 | 47.49320 | -122.27032 | 30766 ft | 395 kts | 358° |
| 2026-04-30 19:14 | 47.52034 | -122.27060 | 30270 ft | 392 kts | 358° |
| 2026-04-30 19:14 | 47.54751 | -122.27105 | 29770 ft | 389 kts | 357° |
| 2026-04-30 19:14 | 47.57458 | -122.27144 | 29267 ft | 386 kts | 358° |
| 2026-04-30 19:14 | 47.60138 | -122.27166 | 28766 ft | 384 kts | 358° |
| 2026-04-30 19:15 | 47.62806 | -122.27187 | 28264 ft | 381 kts | 358° |
| 2026-04-30 19:15 | 47.68052 | -122.27252 | 27267 ft | 376 kts | 359° |
| 2026-04-30 19:15 | 47.70677 | -122.27292 | 26764 ft | 374 kts | 359° |
| 2026-04-30 19:16 | 47.73252 | -122.27318 | 26268 ft | 372 kts | 359° |
| 2026-04-30 19:16 | 47.75845 | -122.27344 | 25765 ft | 370 kts | 359° |
| 2026-04-30 19:16 | 47.80975 | -122.27405 | 24761 ft | 366 kts | 359° |
| 2026-04-30 19:17 | 47.83494 | -122.27438 | 24265 ft | 364 kts | 359° |
| 2026-04-30 19:17 | 47.88551 | -122.27686 | 23263 ft | 361 kts | 355° |
| 2026-04-30 19:17 | 47.91040 | -122.28144 | 22765 ft | 359 kts | 352° |
| 2026-04-30 19:18 | 47.95128 | -122.29123 | 21933 ft | 355 kts | 351° |
| 2026-04-30 19:18 | 47.98344 | -122.29957 | 21315 ft | 350 kts | 351° |
| 2026-04-30 19:18 | 48.00738 | -122.30587 | 20927 ft | 347 kts | 350° |
| 2026-04-30 19:19 | 48.03115 | -122.31214 | 20548 ft | 345 kts | 350° |
| 2026-04-30 19:19 | 48.05482 | -122.31837 | 20172 ft | 344 kts | 350° |
| 2026-04-30 19:19 | 48.10145 | -122.33100 | 19425 ft | 340 kts | 349° |
| 2026-04-30 19:20 | 48.12473 | -122.33756 | 19049 ft | 339 kts | 349° |
| 2026-04-30 19:20 | 48.14805 | -122.34415 | 18670 ft | 337 kts | 349° |
| 2026-04-30 19:20 | 48.19370 | -122.35722 | 17921 ft | 333 kts | 349° |
| 2026-04-30 19:21 | 48.21639 | -122.36401 | 17546 ft | 331 kts | 348° |
| 2026-04-30 19:21 | 48.26115 | -122.37756 | 16798 ft | 328 kts | 348° |
| 2026-04-30 19:22 | 48.30579 | -122.39104 | 16044 ft | 324 kts | 348° |
| 2026-04-30 19:22 | 48.37160 | -122.41073 | 14919 ft | 319 kts | 348° |
| 2026-04-30 19:23 | 48.43634 | -122.42986 | 13794 ft | 314 kts | 348° |
| 2026-04-30 19:24 | 48.47914 | -122.44236 | 13040 ft | 310 kts | 348° |
| 2026-04-30 19:24 | 48.50013 | -122.44824 | 12667 ft | 309 kts | 349° |
| 2026-04-30 19:24 | 48.54209 | -122.46020 | 11917 ft | 306 kts | 348° |
| 2026-04-30 19:25 | 48.60426 | -122.47849 | 10787 ft | 301 kts | 348° |
| 2026-04-30 19:26 | 48.64498 | -122.49040 | 10139 ft | 294 kts | 349° |
| 2026-04-30 19:26 | 48.68347 | -122.50398 | 9991 ft | 278 kts | 335° |
| 2026-04-30 19:26 | 48.69921 | -122.52033 | 10011 ft | 274 kts | 318° |
| 2026-04-30 19:27 | 48.72531 | -122.56189 | 9920 ft | 275 kts | 310° |
| 2026-04-30 19:27 | 48.74997 | -122.60595 | 9412 ft | 268 kts | 309° |
| 2026-04-30 19:28 | 48.76172 | -122.62735 | 9160 ft | 264 kts | 309° |
| 2026-04-30 19:28 | 48.78482 | -122.66963 | 8654 ft | 258 kts | 309° |
| 2026-04-30 19:29 | 48.80765 | -122.71149 | 8184 ft | 254 kts | 309° |
| 2026-04-30 19:29 | 48.81888 | -122.73212 | 8057 ft | 251 kts | 309° |
| 2026-04-30 19:30 | 48.85192 | -122.79290 | 7996 ft | 249 kts | 309° |
| 2026-04-30 19:30 | 48.87401 | -122.83348 | 8003 ft | 250 kts | 309° |
| 2026-04-30 19:31 | 48.89631 | -122.87432 | 8003 ft | 250 kts | 309° |
| 2026-04-30 19:31 | 48.90734 | -122.89489 | 8001 ft | 248 kts | 308° |
| 2026-04-30 19:31 | 48.92841 | -122.93575 | 7457 ft | 249 kts | 307° |
| 2026-04-30 19:32 | 48.93912 | -122.95664 | 6956 ft | 250 kts | 307° |
| 2026-04-30 19:32 | 48.94982 | -122.97716 | 6461 ft | 249 kts | 308° |
| 2026-04-30 19:32 | 48.96306 | -122.99385 | 6074 ft | 243 kts | 334° |
| 2026-04-30 19:32 | 48.97877 | -122.99844 | 6011 ft | 228 kts | 4° |
| 2026-04-30 19:33 | 48.99367 | -122.99175 | 6023 ft | 222 kts | 25° |
| 2026-04-30 19:33 | 49.00740 | -122.97989 | 5736 ft | 233 kts | 33° |
| 2026-04-30 19:33 | 49.02089 | -122.96579 | 5245 ft | 236 kts | 36° |
| 2026-04-30 19:33 | 49.03360 | -122.95136 | 5079 ft | 224 kts | 37° |
| 2026-04-30 19:34 | 49.04576 | -122.93723 | 5013 ft | 214 kts | 38° |
| 2026-04-30 19:34 | 49.05672 | -122.92276 | 5005 ft | 204 kts | 50° |
| 2026-04-30 19:34 | 49.06554 | -122.88292 | 5009 ft | 199 kts | 80° |
| 2026-04-30 19:35 | 49.06779 | -122.86214 | 4998 ft | 197 kts | 82° |
| 2026-04-30 19:35 | 49.06991 | -122.84147 | 4809 ft | 202 kts | 80° |
| 2026-04-30 19:35 | 49.07590 | -122.82224 | 4527 ft | 201 kts | 50° |
| 2026-04-30 19:35 | 49.08769 | -122.81131 | 4362 ft | 198 kts | 19° |
| 2026-04-30 19:36 | 49.10103 | -122.80671 | 4241 ft | 199 kts | 10° |
| 2026-04-30 19:36 | 49.11466 | -122.80778 | 4070 ft | 197 kts | 342° |
| 2026-04-30 19:36 | 49.13447 | -122.83497 | 4016 ft | 195 kts | 307° |
| 2026-04-30 19:37 | 49.14176 | -122.85238 | 4001 ft | 193 kts | 298° |
| 2026-04-30 19:37 | 49.14735 | -122.87112 | 3992 ft | 192 kts | 291° |
| 2026-04-30 19:37 | 49.15160 | -122.89043 | 3856 ft | 197 kts | 286° |
| 2026-04-30 19:37 | 49.15507 | -122.91076 | 3616 ft | 197 kts | 283° |
| 2026-04-30 19:38 | 49.15796 | -122.93121 | 3363 ft | 195 kts | 281° |
| 2026-04-30 19:38 | 49.16049 | -122.95124 | 3105 ft | 192 kts | 280° |
| 2026-04-30 19:38 | 49.16287 | -122.97124 | 2853 ft | 190 kts | 280° |
| 2026-04-30 19:38 | 49.16440 | -122.98433 | 2686 ft | 189 kts | 280° |
| 2026-04-30 19:39 | 49.16741 | -123.01047 | 2380 ft | 186 kts | 279° |
| 2026-04-30 19:39 | 49.16888 | -123.02328 | 2282 ft | 182 kts | 279° |
| 2026-04-30 19:39 | 49.17105 | -123.04220 | 2165 ft | 181 kts | 279° |
| 2026-04-30 19:39 | 49.17319 | -123.06072 | 2025 ft | 166 kts | 279° |
| 2026-04-30 19:40 | 49.17511 | -123.07736 | 1666 ft | 152 kts | 280° |
| 2026-04-30 19:40 | 49.17689 | -123.09274 | 1238 ft | 142 kts | 280° |
| 2026-04-30 19:40 | 49.17855 | -123.10721 | 839 ft | 136 kts | 280° |
| 2026-04-30 19:40 | 49.18016 | -123.12121 | 573 ft | 130 kts | 280° |
| 2026-04-30 19:41 | 49.18172 | -123.13472 | 387 ft | 128 kts | 280° |
| 2026-04-30 19:41 | 49.18328 | -123.14818 | 231 ft | 128 kts | 280° |
| 2026-04-30 19:41 | 49.18480 | -123.16148 | 92 ft | 128 kts | 279° |
| 2026-04-30 19:41 | 49.18632 | -123.17472 | 23 ft | 119 kts | 279° |
| 2026-04-30 19:42 | 49.18733 | -123.18373 | 23 ft | 56 kts | 280° |
| 2026-04-30 19:42 | 49.18792 | -123.18883 | 23 ft | 41 kts | 279° |
| 2026-04-30 19:42 | 49.18833 | -123.19244 | 23 ft | 28 kts | 280° |
| 2026-04-30 19:42 | 49.18874 | -123.19518 | 23 ft | 21 kts | 300° |
| 2026-04-30 19:43 | 49.18946 | -123.19654 | 23 ft | 16 kts | 310° |
| 2026-04-30 19:43 | 49.19018 | -123.19783 | 23 ft | 16 kts | 315° |
| 2026-04-30 19:43 | 49.19116 | -123.19836 | 23 ft | 15 kts | 358° |
| 2026-04-30 19:44 | 49.19269 | -123.19666 | 23 ft | 14 kts | 76° |
| 2026-04-30 19:44 | 49.19284 | -123.19551 | 23 ft | 9 kts | 79° |
| 2026-04-30 19:44 | 49.19296 | -123.19448 | 23 ft | 10 kts | 79° |
| 2026-04-30 19:44 | 49.19311 | -123.19333 | 23 ft | 12 kts | 79° |
| 2026-04-30 19:45 | 49.19328 | -123.19192 | 23 ft | 15 kts | 79° |
| 2026-04-30 19:45 | 49.19348 | -123.19028 | 23 ft | 17 kts | 79° |
| 2026-04-30 19:45 | 49.19371 | -123.18840 | 23 ft | 19 kts | 79° |
| 2026-04-30 19:45 | 49.19398 | -123.18690 | 23 ft | 8 kts | 34° |
| 2026-04-30 19:46 | 49.19449 | -123.18686 | 23 ft | 5 kts | 9° |
| 2026-04-30 19:46 | 49.19488 | -123.18676 | 23 ft | 7 kts | 9° |
| 2026-04-30 19:46 | 49.19518 | -123.18653 | 23 ft | 2 kts | 68° |
| 2026-04-30 19:46 | 49.19517 | -123.18636 | 23 ft | 2 kts | 100° |
| 2026-04-30 19:47 | 49.19513 | -123.18604 | 23 ft | 4 kts | 100° |
| 2026-04-30 19:47 | 49.19513 | -123.18601 | 23 ft | 0 kts | 100° |